Time;durP1;ratioP1;P1;durP2;ratioP2;P2;SDS_P1;SDS_P2;PMS_P1;PMS_P2;Temp;Humidity;BMP_temperature;BMP_pressure;BME280_temperature;BME280_humidity;BME280_pressure;Samples;Min_cycle;Max_cycle;Signal;HPM_P1;HPM_P2
2023/08/19 00:01:31;;;;;;;8.17;6.87;;;22.50;99.90;;;;;;5022343;28;20228;-63
2023/08/19 00:03:57;;;;;;;7.90;7.20;;;22.50;99.90;;;;;;5023076;28;20198;-62
2023/08/19 00:06:37;;;;;;;8.73;7.30;;;22.50;99.90;;;;;;5021587;28;20214;-62
2023/08/19 00:09:05;;;;;;;7.70;6.97;;;22.50;99.90;;;;;;5023155;28;20182;-63
2023/08/19 00:11:34;;;;;;;11.00;8.00;;;22.50;99.90;;;;;;5022182;28;20467;-62
2023/08/19 00:14:00;;;;;;;7.87;7.00;;;22.50;99.90;;;;;;5022794;28;20471;-62
2023/08/19 00:16:26;;;;;;;9.23;8.07;;;22.50;99.90;;;;;;5021845;28;20535;-63
2023/08/19 00:18:52;;;;;;;8.10;7.10;;;22.50;99.90;;;;;;5022753;28;20435;-62
2023/08/19 00:21:18;;;;;;;10.00;7.50;;;22.50;99.90;;;;;;5021695;28;20798;-62
2023/08/19 00:23:43;;;;;;;12.33;7.97;;;22.50;99.90;;;;;;5022917;28;20823;-62
2023/08/19 00:26:11;;;;;;;8.90;7.57;;;22.50;99.90;;;;;;5022134;28;20222;-62
2023/08/19 00:28:40;;;;;;;7.53;6.83;;;22.50;99.90;;;;;;5023507;28;20186;-62
2023/08/19 00:31:07;;;;;;;12.20;7.53;;;22.50;99.90;;;;;;5026056;28;21024;-59
2023/08/19 00:33:33;;;;;;;8.83;7.47;;;22.40;99.90;;;;;;5025970;28;20409;-63
2023/08/19 00:35:59;;;;;;;11.90;7.80;;;22.40;99.90;;;;;;5026005;28;20520;-63
2023/08/19 00:38:25;;;;;;;9.20;7.73;;;22.40;99.90;;;;;;5025138;28;20512;-62
2023/08/19 00:40:50;;;;;;;8.67;7.77;;;22.30;99.90;;;;;;5025986;28;20189;-62
2023/08/19 00:43:16;;;;;;;8.27;7.50;;;22.30;99.90;;;;;;5025165;28;20182;-62
2023/08/19 00:45:47;;;;;;;9.23;8.30;;;22.30;99.90;;;;;;5025933;28;20799;-62
2023/08/19 00:48:14;;;;;;;7.90;7.20;;;22.40;99.90;;;;;;5025091;28;20186;-62
2023/08/19 00:50:40;;;;;;;8.07;7.27;;;22.30;99.90;;;;;;5025722;28;20422;-63
2023/08/19 00:53:07;;;;;;;12.30;8.00;;;22.40;99.90;;;;;;5025381;28;20425;-62
2023/08/19 00:55:34;;;;;;;8.97;7.70;;;22.40;99.90;;;;;;5025598;28;20421;-63
2023/08/19 00:58:01;;;;;;;10.80;6.53;;;22.40;99.90;;;;;;5025237;28;20484;-62
2023/08/19 01:00:31;;;;;;;8.00;7.20;;;22.40;99.90;;;;;;5024816;28;20435;-62
2023/08/19 01:02:58;;;;;;;9.63;7.20;;;22.50;99.90;;;;;;5025353;28;20444;-62
2023/08/19 01:05:33;;;;;;;8.90;6.93;;;22.40;99.90;;;;;;5023032;28;20504;-62
2023/08/19 01:08:01;;;;;;;7.43;6.13;;;22.50;99.90;;;;;;5023855;28;20425;-62
2023/08/19 01:10:55;;;;;;;7.10;6.50;;;22.50;99.90;;;;;;5005035;28;21212;-62
2023/08/19 01:13:27;;;;;;;6.97;6.27;;;22.50;99.90;;;;;;5005111;28;21108;-62
2023/08/19 01:15:59;;;;;;;6.63;6.13;;;22.40;99.90;;;;;;5005716;28;20482;-62
2023/08/19 01:18:25;;;;;;;11.43;6.40;;;22.50;99.90;;;;;;5004735;28;20453;-62
2023/08/19 01:20:53;;;;;;;6.67;5.97;;;22.50;99.90;;;;;;5005457;28;20920;-62
2023/08/19 01:23:42;;;;;;;9.70;6.80;;;22.50;99.90;;;;;;5004622;28;20418;-62
2023/08/19 01:26:08;;;;;;;7.03;6.43;;;22.50;99.90;;;;;;5004984;28;21268;-62
2023/08/19 01:28:34;;;;;;;6.83;6.27;;;22.50;99.90;;;;;;5005212;28;20506;-63
2023/08/19 01:31:00;;;;;;;7.57;6.10;;;22.50;99.90;;;;;;5005382;28;20183;-62
2023/08/19 01:33:26;;;;;;;7.03;6.33;;;22.40;99.90;;;;;;5004570;28;20238;-62
2023/08/19 01:36:21;;;;;;;6.80;6.10;;;22.40;99.90;;;;;;5005375;28;20426;-62
2023/08/19 01:39:00;;;;;;;6.83;6.23;;;22.40;99.90;;;;;;5003922;28;20419;-62
2023/08/19 01:41:29;;;;;;;8.17;6.40;;;22.30;99.90;;;;;;5004416;28;20449;-62
2023/08/19 01:43:59;;;;;;;8.20;5.90;;;22.30;99.90;;;;;;5004234;28;20429;-63
2023/08/19 01:46:26;;;;;;;9.00;6.10;;;22.20;99.90;;;;;;5003850;28;21125;-63
2023/08/19 01:48:51;;;;;;;8.20;6.10;;;22.20;99.90;;;;;;5004786;28;20450;-62
2023/08/19 01:51:18;;;;;;;8.07;7.00;;;22.20;99.90;;;;;;5004285;28;20509;-62
2023/08/19 01:53:43;;;;;;;7.07;5.70;;;22.20;99.90;;;;;;5003666;28;20278;-62
2023/08/19 01:56:11;;;;;;;7.53;6.03;;;22.20;99.90;;;;;;5003781;28;21025;-62
2023/08/19 01:58:37;;;;;;;9.60;5.67;;;22.20;99.90;;;;;;5004566;28;20179;-63
2023/08/19 02:01:03;;;;;;;6.37;5.77;;;22.20;99.90;;;;;;5004672;28;20472;-62
2023/08/19 02:03:28;;;;;;;7.17;5.67;;;22.20;99.90;;;;;;5004193;28;20679;-63
2023/08/19 02:05:54;;;;;;;5.87;5.37;;;22.20;99.90;;;;;;5004586;28;20465;-63
2023/08/19 02:08:20;;;;;;;6.60;5.83;;;22.30;99.90;;;;;;5003691;28;20290;-63
2023/08/19 02:10:46;;;;;;;6.13;5.50;;;22.30;99.90;;;;;;5004691;28;20278;-62
2023/08/19 02:13:11;;;;;;;6.20;4.90;;;22.30;99.90;;;;;;5003712;28;20175;-62
2023/08/19 02:15:37;;;;;;;6.93;6.07;;;22.30;99.90;;;;;;5004244;28;20429;-62
2023/08/19 02:18:03;;;;;;;6.23;5.67;;;22.30;99.90;;;;;;5003826;28;20179;-61
2023/08/19 02:20:29;;;;;;;6.40;5.80;;;22.30;99.90;;;;;;5004149;28;20237;-62
2023/08/19 02:22:55;;;;;;;8.23;6.20;;;22.30;99.90;;;;;;5004320;28;20419;-63
2023/08/19 02:25:20;;;;;;;6.77;5.73;;;22.30;99.90;;;;;;5003744;28;20352;-63
2023/08/19 02:27:46;;;;;;;7.87;6.03;;;22.30;99.90;;;;;;5007112;28;20433;-62
2023/08/19 02:30:12;;;;;;;6.67;5.93;;;22.20;99.90;;;;;;5023586;28;20266;-62
2023/08/19 02:32:42;;;;;;;7.80;7.00;;;22.20;99.90;;;;;;5023972;28;20232;-62
2023/08/19 02:35:09;;;;;;;7.43;6.20;;;22.10;99.90;;;;;;5023349;28;20913;-63
2023/08/19 02:37:35;;;;;;;7.50;6.90;;;22.00;99.90;;;;;;5023621;28;20427;-62
2023/08/19 02:40:00;;;;;;;6.10;5.60;;;21.80;99.90;;;;;;5023787;28;20803;-62
2023/08/19 02:42:26;;;;;;;6.17;5.67;;;21.70;99.90;;;;;;5023755;28;20186;-62
2023/08/19 02:44:52;;;;;;;10.53;5.23;;;21.70;99.90;;;;;;5023712;28;20205;-63
2023/08/19 02:47:17;;;;;;;6.00;5.13;;;21.80;99.90;;;;;;5022750;28;20183;-62
2023/08/19 02:49:43;;;;;;;5.90;5.30;;;21.90;99.90;;;;;;5023715;28;20181;-62
2023/08/19 02:52:09;;;;;;;4.97;4.33;;;22.00;99.90;;;;;;5020932;28;20189;-62
2023/08/19 02:54:35;;;;;;;8.53;5.00;;;22.10;99.90;;;;;;5023103;28;20422;-62
2023/08/19 02:57:01;;;;;;;5.63;5.00;;;22.20;99.90;;;;;;5022612;28;20915;-62
2023/08/19 02:59:27;;;;;;;4.93;4.53;;;22.30;99.90;;;;;;5021388;28;20182;-62
2023/08/19 03:01:52;;;;;;;5.77;4.57;;;22.30;99.90;;;;;;5026727;28;20928;-62
2023/08/19 03:04:18;;;;;;;5.83;5.13;;;22.30;99.90;;;;;;5022049;28;20198;-62
2023/08/19 03:06:44;;;;;;;5.37;4.83;;;22.30;99.90;;;;;;5022447;28;20241;-62
2023/08/19 03:09:09;;;;;;;7.43;5.70;;;22.30;99.90;;;;;;5022110;28;20213;-62
2023/08/19 03:11:36;;;;;;;7.90;5.70;;;22.30;99.90;;;;;;5022773;28;20613;-62
2023/08/19 03:14:02;;;;;;;8.20;4.63;;;22.30;99.90;;;;;;5022045;28;20217;-61
2023/08/19 03:16:28;;;;;;;6.30;5.30;;;22.30;99.90;;;;;;5022117;28;20608;-62
2023/08/19 03:18:54;;;;;;;6.80;5.27;;;22.30;99.90;;;;;;5022496;28;20179;-63
2023/08/19 03:21:20;;;;;;;5.60;4.77;;;22.30;99.90;;;;;;5022478;28;20455;-63
2023/08/19 03:23:45;;;;;;;8.70;5.50;;;22.30;99.90;;;;;;5023949;28;20432;-63
2023/08/19 03:26:11;;;;;;;6.07;4.93;;;22.20;99.90;;;;;;5022872;28;20515;-62
2023/08/19 03:28:37;;;;;;;11.77;5.10;;;22.20;99.90;;;;;;5023631;28;20216;-62
2023/08/19 03:31:12;;;;;;;5.43;4.93;;;22.10;99.90;;;;;;5022682;28;20450;-62
2023/08/19 03:33:38;;;;;;;5.10;4.60;;;21.90;99.90;;;;;;5021907;28;20243;-63
2023/08/19 03:36:04;;;;;;;4.87;4.47;;;21.80;99.90;;;;;;5021823;28;20456;-61
2023/08/19 03:38:30;;;;;;;5.70;5.07;;;21.70;99.90;;;;;;5022787;28;20456;-62
2023/08/19 03:40:56;;;;;;;5.40;4.90;;;21.70;99.90;;;;;;5022675;28;20421;-62
2023/08/19 03:43:22;;;;;;;6.00;4.10;;;21.80;99.90;;;;;;5022568;28;20516;-62
2023/08/19 03:45:47;;;;;;;6.17;4.60;;;21.80;99.90;;;;;;5022758;28;20206;-62
2023/08/19 03:48:13;;;;;;;6.77;4.97;;;21.90;99.90;;;;;;5022297;28;20250;-63
2023/08/19 03:50:39;;;;;;;5.40;4.90;;;21.90;99.90;;;;;;5023193;28;20289;-63
2023/08/19 03:53:05;;;;;;;5.87;4.90;;;21.90;99.90;;;;;;5022436;28;20214;-62
2023/08/19 03:55:31;;;;;;;5.23;4.83;;;22.00;99.90;;;;;;5022885;28;21118;-62
2023/08/19 03:57:56;;;;;;;5.50;4.87;;;22.10;99.90;;;;;;5022616;28;20273;-62
2023/08/19 04:00:22;;;;;;;4.97;4.13;;;22.10;99.90;;;;;;5022449;28;20201;-62
2023/08/19 04:02:48;;;;;;;7.83;4.60;;;22.20;99.90;;;;;;5022663;28;21002;-62
2023/08/19 04:05:14;;;;;;;3.93;3.63;;;22.30;99.90;;;;;;5024913;28;20476;-63
2023/08/19 04:07:40;;;;;;;5.43;4.17;;;22.30;99.90;;;;;;5026845;28;20432;-62
2023/08/19 04:10:07;;;;;;;6.13;4.47;;;22.20;99.90;;;;;;5025858;28;20178;-62
2023/08/19 04:12:33;;;;;;;7.00;3.60;;;22.30;99.90;;;;;;5026206;28;20433;-63
2023/08/19 04:14:59;;;;;;;4.63;4.00;;;22.30;99.90;;;;;;5026028;28;20417;-61
2023/08/19 04:17:25;;;;;;;4.30;3.90;;;22.30;99.90;;;;;;5025802;28;20421;-62
2023/08/19 04:19:51;;;;;;;9.00;4.40;;;22.30;99.90;;;;;;5026452;28;20474;-63
2023/08/19 04:22:18;;;;;;;4.23;3.83;;;22.30;99.90;;;;;;5025824;28;20787;-63
2023/08/19 04:24:50;;;;;;;4.30;3.60;;;22.40;99.90;;;;;;5026549;28;20209;-62
2023/08/19 04:27:15;;;;;;;9.40;4.57;;;22.40;99.90;;;;;;5025451;28;20436;-63
2023/08/19 04:29:41;;;;;;;4.50;4.10;;;22.30;99.90;;;;;;5026573;28;20429;-62
2023/08/19 04:32:07;;;;;;;7.40;4.10;;;22.40;99.90;;;;;;5025369;28;20189;-62
2023/08/19 04:34:33;;;;;;;5.00;3.70;;;22.40;99.90;;;;;;5026130;28;20812;-62
2023/08/19 04:36:58;;;;;;;6.43;4.10;;;22.40;99.90;;;;;;5025220;28;20683;-62
2023/08/19 04:39:24;;;;;;;3.90;3.57;;;22.40;99.90;;;;;;5025846;28;20655;-62
2023/08/19 04:41:50;;;;;;;4.07;3.67;;;22.40;99.90;;;;;;5025989;28;20186;-62
2023/08/19 04:44:16;;;;;;;3.73;3.33;;;22.30;99.90;;;;;;5025222;28;20500;-62
2023/08/19 04:46:42;;;;;;;5.67;3.70;;;22.30;99.90;;;;;;5025666;28;20503;-62
2023/08/19 04:49:08;;;;;;;6.67;3.90;;;22.40;99.90;;;;;;5025205;28;20448;-62
2023/08/19 04:51:35;;;;;;;6.90;3.50;;;22.40;99.90;;;;;;5026159;28;20464;-62
2023/08/19 04:54:01;;;;;;;4.33;3.70;;;22.50;99.90;;;;;;5024123;28;20182;-62
2023/08/19 04:56:26;;;;;;;4.33;3.90;;;22.50;99.90;;;;;;5025438;28;20425;-63
2023/08/19 04:58:52;;;;;;;4.17;3.77;;;22.60;99.90;;;;;;5025455;28;20789;-62
2023/08/19 05:01:18;;;;;;;3.50;3.20;;;22.60;99.90;;;;;;5025203;28;20583;-62
2023/08/19 05:03:43;;;;;;;7.00;3.57;;;22.70;99.90;;;;;;5025939;28;20198;-63
2023/08/19 05:06:09;;;;;;;5.20;3.73;;;22.70;99.90;;;;;;5023702;28;20225;-63
2023/08/19 05:08:35;;;;;;;4.20;3.47;;;22.60;99.90;;;;;;5025701;28;20183;-62
2023/08/19 05:11:01;;;;;;;10.80;3.63;;;22.60;99.90;;;;;;5024643;28;20189;-62
2023/08/19 05:13:26;;;;;;;5.30;3.67;;;22.60;99.90;;;;;;5025287;28;20182;-62
2023/08/19 05:15:52;;;;;;;4.70;3.57;;;22.60;99.90;;;;;;5024688;28;20171;-63
2023/08/19 05:18:18;;;;;;;4.50;3.70;;;22.70;99.90;;;;;;5024286;28;20321;-62
2023/08/19 05:20:43;;;;;;;6.80;3.60;;;22.70;99.90;;;;;;5024452;28;20186;-62
2023/08/19 05:23:09;;;;;;;4.60;4.13;;;22.80;99.90;;;;;;5024490;28;20182;-62
2023/08/19 05:25:35;;;;;;;5.10;3.97;;;22.90;99.90;;;;;;5024947;28;20305;-62
2023/08/19 05:28:00;;;;;;;6.37;3.63;;;22.90;99.90;;;;;;5024260;28;20222;-62
2023/08/19 05:30:26;;;;;;;4.20;3.80;;;22.90;99.90;;;;;;5025295;28;20595;-63
2023/08/19 05:32:52;;;;;;;5.47;3.07;;;23.00;99.90;;;;;;5024810;28;20238;-62
2023/08/19 05:35:17;;;;;;;3.90;3.50;;;23.00;99.90;;;;;;5024725;28;20285;-62
2023/08/19 05:37:43;;;;;;;8.00;4.07;;;23.10;99.90;;;;;;5024811;28;20189;-62
2023/08/19 05:40:09;;;;;;;4.93;3.30;;;23.10;99.90;;;;;;5024202;28;20740;-62
2023/08/19 05:42:35;;;;;;;3.90;3.53;;;23.20;99.90;;;;;;5024856;28;20662;-62
2023/08/19 05:45:00;;;;;;;4.53;3.33;;;23.20;99.90;;;;;;5022392;28;20186;-61
2023/08/19 05:47:26;;;;;;;4.53;2.97;;;23.20;99.90;;;;;;5024293;28;20189;-62
2023/08/19 05:49:52;;;;;;;6.13;3.93;;;23.30;99.90;;;;;;5024735;28;20260;-62
2023/08/19 05:52:18;;;;;;;5.10;3.70;;;23.30;99.90;;;;;;5024443;28;20272;-62
2023/08/19 05:54:43;;;;;;;3.83;3.43;;;23.30;99.90;;;;;;5024904;28;20190;-63
2023/08/19 05:57:09;;;;;;;3.23;2.93;;;23.40;99.90;;;;;;5023741;28;20185;-62
2023/08/19 05:59:35;;;;;;;9.27;3.63;;;23.30;99.90;;;;;;5024632;28;20198;-62
2023/08/19 06:02:00;;;;;;;3.97;3.57;;;23.40;99.90;;;;;;5023730;28;20841;-62
2023/08/19 06:04:26;;;;;;;4.37;3.93;;;23.40;99.90;;;;;;5023219;28;20202;-62
2023/08/19 06:06:52;;;;;;;4.50;3.40;;;23.50;99.90;;;;;;5021111;28;20753;-63
2023/08/19 06:09:18;;;;;;;4.10;3.57;;;23.50;99.90;;;;;;5026457;28;20209;-62
2023/08/19 06:11:51;;;;;;;4.13;3.63;;;23.50;99.90;;;;;;5035914;28;20179;-62
2023/08/19 06:14:17;;;;;;;4.23;3.83;;;23.60;99.90;;;;;;5023134;28;20199;-63
2023/08/19 06:16:43;;;;;;;4.70;3.80;;;23.60;99.90;;;;;;5029398;28;20468;-62
2023/08/19 06:19:09;;;;;;;5.00;3.27;;;23.70;99.90;;;;;;5025455;28;20520;-62
2023/08/19 06:21:34;;;;;;;4.10;3.47;;;23.70;99.90;;;;;;5023938;28;20266;-62
2023/08/19 06:24:00;;;;;;;4.20;3.37;;;23.70;99.90;;;;;;5022744;28;20301;-62
2023/08/19 06:26:26;;;;;;;3.60;3.30;;;23.70;99.90;;;;;;5021044;28;20206;-62
2023/08/19 06:28:52;;;;;;;4.17;3.03;;;23.80;99.90;;;;;;5019646;28;20688;-62
2023/08/19 06:31:18;;;;;;;5.23;3.77;;;23.80;99.90;;;;;;5022473;28;20186;-62
2023/08/19 06:33:44;;;;;;;7.13;3.40;;;23.80;99.90;;;;;;5023082;28;20440;-62
2023/08/19 06:36:11;;;;;;;4.67;4.20;;;23.90;99.90;;;;;;5022567;28;20418;-62
2023/08/19 06:38:41;;;;;;;4.17;3.23;;;24.00;99.90;;;;;;5023099;28;20421;-62
2023/08/19 06:41:11;;;;;;;4.53;3.63;;;24.00;99.90;;;;;;5011349;28;20482;-62
2023/08/19 06:43:40;;;;;;;4.43;3.47;;;24.00;99.90;;;;;;5023519;28;20421;-63
2023/08/19 06:46:07;;;;;;;3.20;2.90;;;24.00;99.90;;;;;;5021711;28;20508;-62
2023/08/19 06:48:34;;;;;;;3.70;3.40;;;24.10;99.90;;;;;;5022200;28;20567;-62
2023/08/19 06:51:01;;;;;;;3.83;3.37;;;24.10;99.90;;;;;;5021770;28;20454;-62
2023/08/19 06:53:27;;;;;;;4.20;3.33;;;24.20;99.90;;;;;;5022892;28;20437;-62
2023/08/19 06:56:12;;;;;;;4.40;4.00;;;24.10;99.90;;;;;;5022517;28;20425;-62
2023/08/19 06:58:41;;;;;;;3.97;3.57;;;24.20;99.90;;;;;;5018356;28;20465;-63
2023/08/19 07:01:14;;;;;;;7.57;3.53;;;24.20;99.90;;;;;;5021805;28;20433;-63
2023/08/19 07:03:41;;;;;;;6.77;3.70;;;24.20;99.90;;;;;;5023667;28;20437;-63
2023/08/19 07:06:08;;;;;;;5.53;3.40;;;24.30;99.90;;;;;;5021692;28;20477;-63
2023/08/19 07:08:38;;;;;;;3.97;3.23;;;24.30;99.90;;;;;;5020138;28;20429;-63
2023/08/19 07:11:04;;;;;;;4.60;3.87;;;24.20;99.90;;;;;;5020095;28;20583;-63
2023/08/19 07:13:30;;;;;;;5.83;3.20;;;24.20;99.90;;;;;;5022547;28;20421;-63
2023/08/19 07:16:01;;;;;;;6.63;4.03;;;24.30;99.90;;;;;;5021809;28;20178;-63
2023/08/19 07:18:34;;;;;;;4.60;4.00;;;24.20;99.90;;;;;;5022767;28;20421;-63
2023/08/19 07:21:00;;;;;;;5.27;3.73;;;24.30;99.90;;;;;;5022462;28;20768;-63
2023/08/19 07:23:27;;;;;;;5.83;3.87;;;24.30;99.90;;;;;;5022585;28;20413;-63
2023/08/19 07:25:53;;;;;;;4.67;3.53;;;24.30;99.90;;;;;;5019298;28;21153;-62
2023/08/19 07:28:22;;;;;;;4.60;3.30;;;24.40;99.90;;;;;;5022763;28;20422;-63
2023/08/19 07:30:48;;;;;;;6.00;3.40;;;24.40;99.90;;;;;;5022085;28;20428;-63
2023/08/19 07:33:13;;;;;;;5.47;3.40;;;24.40;99.90;;;;;;5019420;28;20425;-63
2023/08/19 07:35:39;;;;;;;6.83;3.50;;;24.40;99.90;;;;;;5022627;28;20931;-63
2023/08/19 07:38:06;;;;;;;4.30;3.73;;;24.40;99.90;;;;;;5023996;28;20186;-63
2023/08/19 07:40:32;;;;;;;4.73;3.50;;;24.40;99.90;;;;;;5026982;28;20198;-63
2023/08/19 07:42:58;;;;;;;9.93;4.43;;;24.40;99.90;;;;;;5023975;28;20457;-63
2023/08/19 07:45:23;;;;;;;4.37;3.50;;;24.50;99.90;;;;;;5025960;28;20210;-63
2023/08/19 07:47:49;;;;;;;4.60;4.10;;;24.50;99.90;;;;;;5025843;28;20233;-63
2023/08/19 07:50:15;;;;;;;4.23;3.83;;;24.40;99.90;;;;;;5024396;28;20289;-63
2023/08/19 07:52:40;;;;;;;5.13;4.30;;;24.40;99.90;;;;;;5025832;28;20262;-63
2023/08/19 07:55:07;;;;;;;4.73;4.00;;;24.40;99.90;;;;;;5023802;28;20178;-64
2023/08/19 07:57:33;;;;;;;4.93;4.50;;;24.50;99.90;;;;;;5025914;28;20209;-63
2023/08/19 07:59:58;;;;;;;5.20;3.50;;;24.50;99.90;;;;;;5025987;28;20801;-63
2023/08/19 08:02:24;;;;;;;6.10;4.60;;;24.50;99.90;;;;;;5026528;28;20182;-63
2023/08/19 08:04:50;;;;;;;6.77;4.00;;;24.50;99.90;;;;;;5025993;28;20281;-63
2023/08/19 08:07:16;;;;;;;3.93;3.63;;;24.50;99.90;;;;;;5032448;28;20816;-64
2023/08/19 08:09:45;;;;;;;6.93;4.17;;;24.50;99.90;;;;;;5039092;28;20819;-63
2023/08/19 08:12:11;;;;;;;6.70;4.43;;;24.50;99.90;;;;;;5022678;28;20618;-63
2023/08/19 08:14:37;;;;;;;5.00;3.93;;;24.50;99.90;;;;;;5026152;28;20413;-63
2023/08/19 08:17:02;;;;;;;4.37;3.97;;;24.50;99.90;;;;;;5025070;28;20506;-63
2023/08/19 08:19:28;;;;;;;4.23;3.83;;;24.50;99.90;;;;;;5025417;28;20277;-63
2023/08/19 08:21:54;;;;;;;5.10;4.30;;;24.40;99.90;;;;;;5023750;28;20181;-64
2023/08/19 08:24:23;;;;;;;6.17;4.70;;;24.50;99.90;;;;;;5017024;28;20194;-63
2023/08/19 08:26:49;;;;;;;4.40;4.00;;;24.50;99.90;;;;;;5024760;28;20457;-63
2023/08/19 08:29:14;;;;;;;11.53;4.07;;;24.50;99.90;;;;;;5020977;28;20493;-63
2023/08/19 08:31:40;;;;;;;4.60;3.87;;;24.50;99.90;;;;;;5029433;28;20213;-63
2023/08/19 08:34:06;;;;;;;7.00;4.30;;;24.60;99.90;;;;;;5025517;28;20295;-63
2023/08/19 08:36:32;;;;;;;4.47;4.07;;;24.60;99.90;;;;;;5027561;28;20182;-63
2023/08/19 08:38:57;;;;;;;5.10;4.27;;;24.60;99.90;;;;;;5027398;28;20471;-63
2023/08/19 08:41:24;;;;;;;5.73;4.77;;;24.70;99.90;;;;;;5024802;28;20238;-63
2023/08/19 08:43:52;;;;;;;4.70;3.93;;;24.70;99.90;;;;;;5027054;28;20193;-63
2023/08/19 08:46:19;;;;;;;4.93;4.40;;;24.70;99.90;;;;;;5027151;28;20468;-63
2023/08/19 08:48:46;;;;;;;6.80;4.00;;;24.80;99.90;;;;;;5027019;28;20436;-63
2023/08/19 08:51:14;;;;;;;7.87;4.63;;;24.80;99.90;;;;;;5027271;28;20421;-63
2023/08/19 08:53:40;;;;;;;4.83;4.33;;;24.90;99.90;;;;;;5027796;28;20927;-63
2023/08/19 08:56:06;;;;;;;4.50;4.10;;;25.00;99.90;;;;;;5027080;28;20433;-63
2023/08/19 08:58:32;;;;;;;5.93;4.50;;;25.10;99.90;;;;;;5021172;28;20190;-63
2023/08/19 09:01:01;;;;;;;4.53;4.13;;;25.20;99.90;;;;;;5027207;28;20479;-63
2023/08/19 09:03:32;;;;;;;7.47;4.33;;;25.30;99.90;;;;;;5021182;28;20443;-63
2023/08/19 09:06:06;;;;;;;4.70;4.20;;;25.40;99.90;;;;;;5027152;28;20933;-63
2023/08/19 09:08:59;;;;;;;6.77;4.50;;;25.50;99.90;;;;;;5020121;28;20943;-63
2023/08/19 09:11:32;;;;;;;5.30;4.40;;;25.60;99.90;;;;;;5013665;28;20943;-63
2023/08/19 09:14:39;;;;;;;5.80;4.77;;;25.70;99.90;;;;;;5026574;28;21564;-63
2023/08/19 09:17:06;;;;;;;5.33;4.67;;;25.90;99.90;;;;;;5026291;28;21018;-63
2023/08/19 09:19:32;;;;;;;5.73;4.80;;;25.90;99.90;;;;;;5027819;28;20433;-63
2023/08/19 09:21:58;;;;;;;5.50;4.67;;;26.00;99.90;;;;;;5026838;28;20466;-63
2023/08/19 09:24:23;;;;;;;6.40;4.80;;;26.00;99.90;;;;;;5027402;28;20435;-63
2023/08/19 09:26:56;;;;;;;5.20;4.80;;;26.00;99.90;;;;;;5026409;28;20214;-63
2023/08/19 09:29:23;;;;;;;6.83;5.03;;;26.00;99.90;;;;;;5023849;28;20190;-63
2023/08/19 09:31:53;;;;;;;5.67;5.17;;;26.00;99.90;;;;;;5020270;28;20445;-63
2023/08/19 09:34:19;;;;;;;6.10;4.80;;;26.10;99.90;;;;;;5027187;28;20480;-63
2023/08/19 09:36:45;;;;;;;5.53;4.67;;;26.10;99.90;;;;;;5028561;28;20433;-63
2023/08/19 09:39:10;;;;;;;5.80;5.20;;;26.10;99.90;;;;;;5014766;28;20186;-63
2023/08/19 09:41:38;;;;;;;7.83;5.40;;;26.10;99.90;;;;;;5025118;28;20182;-63
2023/08/19 09:44:14;;;;;;;8.23;5.23;;;26.20;99.90;;;;;;5022324;28;20195;-63
2023/08/19 09:46:42;;;;;;;9.00;4.50;;;26.20;99.90;;;;;;5025481;28;20559;-63
2023/08/19 09:49:09;;;;;;;6.90;5.23;;;26.30;99.90;;;;;;5026198;28;20425;-64
2023/08/19 09:51:35;;;;;;;5.90;5.33;;;26.30;99.90;;;;;;5026271;28;20521;-63
2023/08/19 09:54:11;;;;;;;11.20;5.97;;;26.40;99.90;;;;;;5026366;28;20785;-63
2023/08/19 09:56:37;;;;;;;5.80;5.30;;;26.50;99.90;;;;;;5025415;28;20291;-63
2023/08/19 09:59:03;;;;;;;8.33;5.13;;;26.50;99.90;;;;;;5023041;28;20459;-63
2023/08/19 10:01:30;;;;;;;9.00;5.47;;;26.60;99.90;;;;;;5026865;28;20906;-63
2023/08/19 10:03:56;;;;;;;5.57;4.90;;;26.60;99.90;;;;;;5026099;28;20213;-64
2023/08/19 10:06:26;;;;;;;7.33;4.87;;;26.70;99.90;;;;;;5026743;28;20477;-64
2023/08/19 10:09:02;;;;;;;9.07;6.03;;;26.80;99.90;;;;;;5025767;28;20176;-63
2023/08/19 10:11:30;;;;;;;7.77;5.20;;;26.80;99.90;;;;;;5026449;28;20464;-64
2023/08/19 10:14:01;;;;;;;9.80;5.53;;;26.90;99.90;;;;;;5025799;28;20433;-63
2023/08/19 10:16:28;;;;;;;5.77;5.30;;;26.90;99.90;;;;;;5026023;28;20437;-64
2023/08/19 10:18:54;;;;;;;8.07;5.40;;;26.90;99.90;;;;;;5025701;28;20975;-63
2023/08/19 10:21:23;;;;;;;5.93;5.40;;;27.00;99.90;;;;;;5026052;28;20466;-64
2023/08/19 10:23:50;;;;;;;7.27;4.97;;;27.00;99.90;;;;;;5025388;28;20532;-64
2023/08/19 10:26:17;;;;;;;6.30;5.70;;;27.00;99.90;;;;;;5026220;28;20461;-63
2023/08/19 10:29:04;;;;;;;6.23;5.50;;;27.10;99.90;;;;;;5025440;28;20436;-63
2023/08/19 10:31:30;;;;;;;9.57;5.60;;;27.10;99.90;;;;;;5043598;22;21061;-72
2023/08/19 10:33:56;;;;;;;8.40;5.80;;;27.20;99.90;;;;;;5035212;28;20460;-72
2023/08/19 10:36:30;;;;;;;7.73;5.37;;;27.20;99.90;;;;;;5028044;28;20421;-72
2023/08/19 10:39:00;;;;;;;6.43;5.83;;;27.30;99.90;;;;;;5046161;28;20930;-72
2023/08/19 10:41:28;;;;;;;10.47;6.07;;;27.30;99.90;;;;;;5044419;28;20420;-72
2023/08/19 10:43:56;;;;;;;7.10;5.77;;;27.40;99.90;;;;;;5046353;28;20973;-72
2023/08/19 10:46:46;;;;;;;6.17;5.57;;;27.40;99.90;;;;;;5044890;28;21046;-72
2023/08/19 10:49:19;;;;;;;8.67;5.77;;;27.60;99.90;;;;;;5046986;28;20413;-72
2023/08/19 10:51:48;;;;;;;9.10;7.33;;;27.80;99.90;;;;;;5046840;28;20440;-72
2023/08/19 10:54:23;;;;;;;7.90;5.80;;;27.90;99.90;;;;;;5045117;28;20420;-72
2023/08/19 10:57:08;;;;;;;7.50;6.20;;;27.90;99.90;;;;;;5042701;28;20477;-72
2023/08/19 10:59:35;;;;;;;10.33;6.47;;;28.00;99.90;;;;;;5043166;28;20489;-72
2023/08/19 11:02:01;;;;;;;6.27;5.70;;;28.10;99.90;;;;;;5040745;28;21009;-72
2023/08/19 11:04:26;;;;;;;6.63;6.03;;;28.30;99.90;;;;;;5043491;28;20464;-72
2023/08/19 11:06:53;;;;;;;7.90;6.63;;;28.40;99.90;;;;;;5060912;28;20483;-73
2023/08/19 11:09:19;;;;;;;6.90;6.20;;;28.40;99.90;;;;;;5040139;28;20217;-72
2023/08/19 11:11:45;;;;;;;8.83;6.13;;;28.50;99.90;;;;;;5046765;28;20468;-73
2023/08/19 11:14:18;;;;;;;7.20;6.50;;;28.60;99.90;;;;;;5044776;28;20467;-72
2023/08/19 11:16:51;;;;;;;8.07;6.37;;;28.70;99.90;;;;;;5045957;28;20303;-73
2023/08/19 11:19:17;;;;;;;9.60;6.53;;;28.70;99.90;;;;;;5045220;28;20444;-72
2023/08/19 11:21:44;;;;;;;8.43;6.70;;;28.70;99.90;;;;;;5028878;28;20470;-73
2023/08/19 11:24:11;;;;;;;8.30;6.80;;;28.80;99.90;;;;;;5046206;28;20527;-73
2023/08/19 11:26:42;;;;;;;8.30;7.40;;;28.90;99.90;;;;;;5039119;28;20490;-72
2023/08/19 11:29:08;;;;;;;8.50;6.53;;;29.00;99.90;;;;;;5042854;28;20871;-72
2023/08/19 11:31:38;;;;;;;8.03;7.23;;;29.10;99.90;;;;;;5043948;28;20512;-73
2023/08/19 11:34:11;;;;;;;7.30;6.70;;;29.10;99.90;;;;;;5044340;28;20881;-73
2023/08/19 11:36:38;;;;;;;7.33;6.63;;;29.10;99.90;;;;;;5042977;28;20480;-72
2023/08/19 11:39:05;;;;;;;7.67;6.90;;;28.90;99.90;;;;;;5046160;28;20478;-72
2023/08/19 11:41:32;;;;;;;12.60;7.43;;;28.90;99.90;;;;;;5046375;28;20456;-73
2023/08/19 11:43:58;;;;;;;9.80;7.57;;;28.70;99.90;;;;;;5044305;28;20440;-72
2023/08/19 11:46:42;;;;;;;7.40;6.80;;;28.60;99.90;;;;;;5045090;28;20483;-72
2023/08/19 11:49:09;;;;;;;8.97;7.83;;;28.50;99.90;;;;;;5044677;28;20482;-72
2023/08/19 11:51:41;;;;;;;8.03;7.23;;;28.40;99.90;;;;;;5044971;28;20475;-72
2023/08/19 11:54:11;;;;;;;8.23;7.40;;;28.30;99.90;;;;;;5046196;28;20500;-72
2023/08/19 11:56:53;;;;;;;8.50;7.37;;;28.20;99.90;;;;;;5044769;28;20455;-72
2023/08/19 11:59:31;;;;;;;9.37;8.47;;;28.00;99.90;;;;;;5043487;28;20856;-72
2023/08/19 12:01:58;;;;;;;10.17;8.60;;;27.90;99.90;;;;;;5045921;28;20479;-72
2023/08/19 12:04:24;;;;;;;9.17;8.27;;;27.80;99.90;;;;;;5045527;28;20455;-72
2023/08/19 12:06:50;;;;;;;8.93;8.23;;;27.80;99.90;;;;;;5043828;28;20479;-72
2023/08/19 12:09:30;;;;;;;9.43;8.07;;;27.60;99.90;;;;;;5045889;28;20286;-72
2023/08/19 12:12:01;;;;;;;9.40;8.50;;;27.50;99.90;;;;;;5045446;28;20459;-72
2023/08/19 12:14:27;;;;;;;10.07;9.17;;;27.50;99.90;;;;;;5044445;28;20520;-72
2023/08/19 12:16:52;;;;;;;9.33;8.30;;;27.40;99.90;;;;;;5044704;28;20464;-72
2023/08/19 12:19:19;;;;;;;9.77;8.97;;;27.40;99.90;;;;;;5039029;28;20296;-72
2023/08/19 12:21:45;;;;;;;10.67;9.40;;;27.40;99.90;;;;;;5046184;28;20228;-72
2023/08/19 12:24:10;;;;;;;8.80;8.00;;;27.40;99.90;;;;;;5046289;28;20539;-72
2023/08/19 12:26:36;;;;;;;13.30;9.33;;;27.60;99.90;;;;;;5049180;28;20324;-72
2023/08/19 12:29:02;;;;;;;10.63;8.63;;;27.60;99.90;;;;;;5049146;28;20717;-72
2023/08/19 12:31:28;;;;;;;12.47;10.57;;;27.70;99.90;;;;;;5049836;28;20464;-72
2023/08/19 12:33:53;;;;;;;10.53;9.30;;;27.70;99.90;;;;;;5049007;28;20276;-72
2023/08/19 12:36:19;;;;;;;9.93;8.93;;;27.80;99.90;;;;;;5049272;28;20228;-72
2023/08/19 12:38:45;;;;;;;9.77;8.87;;;27.80;99.90;;;;;;5049234;28;20210;-72
2023/08/19 12:41:11;;;;;;;10.73;9.57;;;27.80;99.90;;;;;;5050517;28;20222;-72
2023/08/19 12:43:37;;;;;;;11.13;10.03;;;27.80;99.90;;;;;;5045165;28;20229;-72
2023/08/19 12:46:03;;;;;;;11.10;9.90;;;27.70;99.90;;;;;;5049305;28;21071;-72
2023/08/19 12:48:29;;;;;;;11.20;10.13;;;27.60;99.90;;;;;;5056000;28;20238;-72